Main page
METAR-TAF:

METAR-TAF

Airports :

Jabalpur Airport

Jabalpur, India

latitude: 23-10-54N, longitude: 80-03-31E, elevation: 495 m

Current weather observation

The report was made 6 hours and 54 minutes ago, at 14:30 UTC
Wind 4 kt from the Northeast
Temperature 16°C
Humidity 77%
Pressure 1016 hPa
Visibility: 2500 m
haze

METAR: VAJB 011430Z 04004KT 2500 HZ NSC 16/12 Q1016 NOSIG

Time: 02:54 (21:24 UTC)

Forecast

The report was made 1 hour and 24 minutes ago, at 20:00 UTC
Forecast valid from 01 at 21 UTC to 02 at 06 UTC
Wind 5 kt from the Northeast
Visibility: 2000 m
mist, haze
Becoming
from 02 at 01 UTC to 02 at 03 UTC
Visibility: 1500 m
mist, haze

TAF: VAJB 012000Z 0121/0206 05005KT 2000 BR HZ NSC BECMG 0201/0203 1500 BR HZ

Weather observations and forecasts of more than 4000 airports (METAR and TAF reports).

The available stations are represented by yellow and red dots on the map.

Hover mouse over dot to see the name of the station.

Then click to see weather observations and forecasts.

To change the map : click on the green buttons with a black cross to zoom in, on the green button with a dash to zoom out, or on the green arrows for adjacent maps.


METAR-TAF: